createdAt,value
2023-04-12T00:03:39.362Z,99612.78
2023-04-12T00:08:42.750Z,99616.09
2023-04-12T00:13:44.385Z,99617.66
2023-04-12T00:18:46.017Z,99605.22
2023-04-12T00:23:47.694Z,99601.03
2023-04-12T00:28:50.019Z,99600.13
2023-04-12T00:33:54.699Z,99597.59
2023-04-12T00:38:56.738Z,99592.50
2023-04-12T00:43:58.684Z,99583.31
2023-04-12T00:49:02.846Z,99580.03
2023-04-12T00:54:04.549Z,99571.56
2023-04-12T00:59:06.656Z,99561.28
2023-04-12T01:04:09.317Z,99561.56
2023-04-12T01:09:30.201Z,99575.84
2023-04-12T01:14:46.541Z,99570.56
2023-04-12T01:19:59.142Z,99568.56
2023-04-12T01:25:26.299Z,99558.31
2023-04-12T01:30:31.290Z,99549.91
2023-04-12T01:35:35.314Z,99560.53
2023-04-12T01:40:40.583Z,99552.75
2023-04-12T01:45:42.582Z,99550.16
2023-04-12T01:51:01.559Z,99550.84
2023-04-12T01:56:08.870Z,99546.47
2023-04-12T02:01:13.583Z,99551.34
2023-04-12T02:06:18.876Z,99550.53
2023-04-12T02:11:20.758Z,99543.66
2023-04-12T02:16:25.068Z,99543.41
2023-04-12T02:21:27.852Z,99546.00
2023-04-12T02:26:29.579Z,99546.66
2023-04-12T02:31:31.190Z,99537.63
2023-04-12T02:36:33.173Z,99541.22
2023-04-12T02:41:34.958Z,99523.16
2023-04-12T02:46:38.089Z,99535.84
2023-04-12T02:51:41.779Z,99537.34
2023-04-12T02:56:44.451Z,99530.41
2023-04-12T03:02:06.200Z,99540.00
2023-04-12T03:07:08.498Z,99536.28
2023-04-12T03:12:21.259Z,99538.44
2023-04-12T03:17:55.723Z,99534.31
2023-04-12T03:23:02.419Z,99544.31
2023-04-12T03:28:06.836Z,99540.97
2023-04-12T03:33:21.811Z,99524.34
2023-04-12T03:38:24.837Z,99522.31
2023-04-12T03:43:27.401Z,99521.41
2023-04-12T03:48:30.367Z,99510.53
2023-04-12T03:53:32.184Z,99511.31
2023-04-12T03:58:36.077Z,99506.81
2023-04-12T04:03:41.254Z,99516.53
2023-04-12T04:09:01.425Z,99509.59
2023-04-12T04:14:07.281Z,99508.56
2023-04-12T04:19:09.846Z,99510.34
2023-04-12T04:24:11.599Z,99501.19
2023-04-12T04:29:18.289Z,99500.56
2023-04-12T04:34:20.068Z,99499.88
2023-04-12T04:39:23.465Z,99512.34
2023-04-12T04:44:25.826Z,99518.41
2023-04-12T04:49:30.643Z,99516.06
2023-04-12T04:54:40.024Z,99519.34
2023-04-12T04:59:42.748Z,99517.06
2023-04-12T05:04:51.287Z,99523.31
2023-04-12T05:09:56.983Z,99530.31
2023-04-12T05:15:11.045Z,99521.06
2023-04-12T05:20:14.553Z,99523.06
2023-04-12T05:25:17.713Z,99518.84
2023-04-12T05:30:27.132Z,99524.25
2023-04-12T05:35:29.013Z,99520.69
2023-04-12T05:40:36.375Z,99535.28
2023-04-12T05:45:41.317Z,99519.41
2023-04-12T05:50:51.126Z,99518.78
2023-04-12T05:55:54.291Z,99515.47
2023-04-12T06:00:57.644Z,99515.66
2023-04-12T06:05:59.405Z,99519.28
2023-04-12T06:11:01.288Z,99514.34
2023-04-12T06:16:02.974Z,99516.75
2023-04-12T06:21:05.518Z,99522.59
2023-04-12T06:26:07.263Z,99529.88
2023-04-12T06:31:09.961Z,99521.75
2023-04-12T06:36:16.201Z,99520.22
2023-04-12T06:41:17.939Z,99523.88
2023-04-12T06:46:29.653Z,99517.16
2023-04-12T06:51:31.419Z,99516.53
2023-04-12T06:56:33.115Z,99510.81
2023-04-12T07:01:34.991Z,99507.75
2023-04-12T07:06:36.636Z,99498.63
2023-04-12T07:11:38.532Z,99477.56
2023-04-12T07:16:40.303Z,99473.50
2023-04-12T07:21:42.300Z,99458.34
2023-04-12T07:26:44.018Z,99460.16
2023-04-12T07:31:45.716Z,99466.06
2023-04-12T07:36:47.551Z,99450.16
2023-04-12T07:41:49.700Z,99440.13
2023-04-12T07:46:51.604Z,99430.94
2023-04-12T07:51:53.242Z,99428.47
2023-04-12T07:56:59.792Z,99422.69
2023-04-12T08:02:02.164Z,99421.06
2023-04-12T08:07:04.313Z,99404.31
2023-04-12T08:12:06.250Z,99408.50
2023-04-12T08:17:08.085Z,99409.34
2023-04-12T08:22:10.828Z,99395.00
2023-04-12T08:27:14.734Z,99395.78
2023-04-12T08:32:16.672Z,99372.38
2023-04-12T08:37:18.529Z,99377.97
2023-04-12T08:42:21.261Z,99361.78
2023-04-12T08:47:23.055Z,99343.16
2023-04-12T08:52:24.821Z,99343.78
2023-04-12T08:57:26.823Z,99331.78
2023-04-12T09:02:28.749Z,99327.09
2023-04-12T09:07:31.220Z,99307.63
2023-04-12T09:12:33.110Z,99305.78
2023-04-12T09:17:36.898Z,99301.72
2023-04-12T09:22:40.155Z,99276.75
2023-04-12T09:27:52.749Z,99261.31
2023-04-12T09:32:55.741Z,99272.69
2023-04-12T09:37:58.675Z,99267.66
2023-04-12T09:43:00.289Z,99257.50
2023-04-12T09:48:01.952Z,99248.78
2023-04-12T09:53:15.434Z,99244.41
2023-04-12T09:58:20.206Z,99238.91
2023-04-12T10:03:22.112Z,99217.63
2023-04-12T10:08:24.226Z,99217.28
2023-04-12T10:13:27.061Z,99202.63
2023-04-12T10:18:29.528Z,99195.69
2023-04-12T10:23:34.316Z,99183.63
2023-04-12T10:28:36.233Z,99192.66
2023-04-12T10:33:38.264Z,99198.13
2023-04-12T10:38:47.495Z,99193.38
2023-04-12T10:43:52.055Z,99192.78
2023-04-12T10:48:56.485Z,99178.66
2023-04-12T10:54:07.538Z,99172.97
2023-04-12T10:59:10.952Z,99159.34
2023-04-12T11:04:20.605Z,99146.69
2023-04-12T11:09:45.513Z,99130.22
2023-04-12T11:14:52.669Z,99133.00
2023-04-12T11:20:01.175Z,99120.78
2023-04-12T11:25:03.400Z,99119.31
2023-04-12T11:30:05.851Z,99111.03
2023-04-12T11:35:11.724Z,99109.75
2023-04-12T11:40:14.740Z,99100.41
2023-04-12T11:45:20.312Z,99080.16
2023-04-12T11:50:30.214Z,99077.94
2023-04-12T11:55:31.992Z,99086.53
2023-04-12T12:00:33.800Z,99072.50
2023-04-12T12:05:41.184Z,99071.72
2023-04-12T12:10:59.800Z,99050.00
2023-04-12T12:16:08.287Z,99048.13
2023-04-12T12:21:11.976Z,99046.66
2023-04-12T12:26:25.527Z,99044.78
2023-04-12T12:31:28.430Z,99033.03
2023-04-12T12:36:35.943Z,99016.56
2023-04-12T12:41:39.084Z,99002.13
2023-04-12T12:46:53.458Z,99003.31
2023-04-12T12:51:58.976Z,98996.53
2023-04-12T12:57:01.353Z,98985.78
2023-04-12T13:02:03.417Z,98967.97
2023-04-12T13:07:05.107Z,98970.22
2023-04-12T13:12:06.744Z,98953.72
2023-04-12T13:17:08.380Z,98953.72
2023-04-12T13:22:10.077Z,98952.78
2023-04-12T13:27:15.142Z,98940.97
2023-04-12T13:32:18.524Z,98947.56
2023-04-12T13:37:20.592Z,98928.19
2023-04-12T13:42:22.875Z,98933.94
2023-04-12T13:47:24.577Z,98931.81
2023-04-12T13:52:26.264Z,98914.66
2023-04-12T13:57:27.854Z,98910.72
2023-04-12T14:02:31.569Z,98918.53
2023-04-12T14:07:34.024Z,98918.56
2023-04-12T14:12:36.086Z,98914.16
2023-04-12T14:17:37.909Z,98894.00
2023-04-12T14:22:39.655Z,98887.34
2023-04-12T14:27:41.368Z,98886.09
2023-04-12T14:32:45.196Z,98869.94
2023-04-12T14:37:48.381Z,98862.75
2023-04-12T14:42:50.036Z,98862.03
2023-04-12T14:47:51.668Z,98861.13
2023-04-12T14:52:54.470Z,98866.38
2023-04-12T14:57:56.098Z,98854.31
2023-04-12T15:03:01.024Z,98833.34
2023-04-12T15:08:02.870Z,98818.16
2023-04-12T15:13:04.695Z,98818.38
2023-04-12T15:18:06.834Z,98821.56
2023-04-12T15:23:08.531Z,98811.06
2023-04-12T15:28:10.125Z,98808.31
2023-04-12T15:33:11.998Z,98806.81
2023-04-12T15:38:17.019Z,98788.66
2023-04-12T15:43:20.804Z,98790.56
2023-04-12T15:48:23.806Z,98788.88
2023-04-12T15:53:27.400Z,98790.72
2023-04-12T15:58:29.063Z,98789.41
2023-04-12T16:03:31.632Z,98787.94
2023-04-12T16:08:33.499Z,98778.84
2023-04-12T16:13:35.396Z,98777.16
2023-04-12T16:18:37.024Z,98768.00
2023-04-12T16:23:39.273Z,98781.75
2023-04-12T16:28:42.908Z,98776.09
2023-04-12T16:33:45.389Z,98767.06
2023-04-12T16:38:47.440Z,98765.38
2023-04-12T16:43:52.774Z,98751.31
2023-04-12T16:48:54.903Z,98743.03
2023-04-12T16:53:56.774Z,98733.13
2023-04-12T16:58:59.340Z,98742.50
2023-04-12T17:04:01.278Z,98747.59
2023-04-12T17:09:03.637Z,98742.81
2023-04-12T17:14:05.245Z,98729.56
2023-04-12T17:19:09.258Z,98735.63
2023-04-12T17:24:12.089Z,98739.09
2023-04-12T17:29:14.573Z,98739.31
2023-04-12T17:34:16.274Z,98751.88
2023-04-12T17:39:18.007Z,98750.31
2023-04-12T17:44:19.614Z,98751.34
2023-04-12T17:49:22.261Z,98759.88
2023-04-12T17:54:23.999Z,98764.88
2023-04-12T17:59:25.605Z,98761.81
2023-04-12T18:04:29.067Z,98761.94
2023-04-12T18:09:30.897Z,98758.81
2023-04-12T18:14:32.559Z,98761.41
2023-04-12T18:19:34.334Z,98756.47
2023-04-12T18:24:37.357Z,98729.88
2023-04-12T18:29:40.263Z,98734.34
2023-04-12T18:34:42.499Z,98737.91
2023-04-12T18:39:45.885Z,98745.53
2023-04-12T18:44:47.535Z,98732.25
2023-04-12T18:49:49.631Z,98744.94
2023-04-12T18:54:51.380Z,98744.97
2023-04-12T18:59:53.033Z,98745.88
2023-04-12T19:04:55.082Z,98739.22
2023-04-12T19:09:57.293Z,98750.19
2023-04-12T19:14:59.339Z,98740.25
2023-04-12T19:20:01.253Z,98726.06
2023-04-12T19:25:02.937Z,98731.09
2023-04-12T19:30:05.322Z,98732.75
2023-04-12T19:35:09.860Z,98732.75
2023-04-12T19:40:14.732Z,98738.63
2023-04-12T19:45:16.412Z,98737.72
2023-04-12T19:50:19.597Z,98745.22
2023-04-12T19:55:21.618Z,98736.75
2023-04-12T20:00:25.304Z,98733.34
2023-04-12T20:05:27.556Z,98728.47
2023-04-12T20:10:29.407Z,98732.69
2023-04-12T20:15:31.356Z,98721.00
2023-04-12T20:20:33.045Z,98716.81
2023-04-12T20:25:37.761Z,98709.28
2023-04-12T20:30:40.039Z,98716.81
2023-04-12T20:35:42.537Z,98709.22
2023-04-12T20:40:45.173Z,98700.84
2023-04-12T20:45:48.031Z,98695.81
2023-04-12T20:50:50.352Z,98674.94
2023-04-12T20:55:53.186Z,98677.53
2023-04-12T21:00:54.923Z,98671.69
2023-04-12T21:05:56.963Z,98668.56
2023-04-12T21:10:58.818Z,98677.00
2023-04-12T21:16:02.604Z,98673.75
2023-04-12T21:21:06.025Z,98682.19
2023-04-12T21:26:07.647Z,98683.88
2023-04-12T21:31:10.033Z,98682.47
2023-04-12T21:36:15.011Z,98667.44
2023-04-12T21:41:16.646Z,98669.97
2023-04-12T21:46:18.872Z,98664.88
2023-04-12T21:51:22.707Z,98664.03
2023-04-12T21:56:24.420Z,98659.03
2023-04-12T22:01:27.182Z,98650.75
2023-04-12T22:06:28.888Z,98656.00
2023-04-12T22:11:30.891Z,98646.91
2023-04-12T22:16:32.847Z,98642.75
2023-04-12T22:21:34.600Z,98651.97
2023-04-12T22:26:36.270Z,98648.69
2023-04-12T22:31:38.527Z,98652.97
2023-04-12T22:36:42.082Z,98646.38
2023-04-12T22:41:49.522Z,98648.13
2023-04-12T22:46:55.222Z,98659.94
2023-04-12T22:51:57.644Z,98660.00
2023-04-12T22:56:59.226Z,98663.34
2023-04-12T23:02:01.369Z,98664.16
2023-04-12T23:07:03.139Z,98661.56
2023-04-12T23:12:06.321Z,98645.63
2023-04-12T23:17:08.188Z,98653.19
2023-04-12T23:22:10.504Z,98657.44
2023-04-12T23:27:12.187Z,98636.56
2023-04-12T23:32:14.025Z,98639.97
2023-04-12T23:37:15.746Z,98634.97
2023-04-12T23:42:17.379Z,98621.59
2023-04-12T23:47:19.301Z,98628.28
2023-04-12T23:52:21.014Z,98614.88
2023-04-12T23:57:22.650Z,98613.25
